sensor_id;sensor_type;location;lat;lon;timestamp;pressure;altitude;pressure_sealevel;temperature;humidity
14612;BME280;7392;52.078;11.650;2022-12-20T00:01:34;101038.06;;;3.36;100.00
14612;BME280;7392;52.078;11.650;2022-12-20T00:04:03;101023.31;;;3.40;100.00
14612;BME280;7392;52.078;11.650;2022-12-20T00:06:33;101030.31;;;3.41;100.00
14612;BME280;7392;52.078;11.650;2022-12-20T00:09:03;101031.25;;;3.43;100.00
14612;BME280;7392;52.078;11.650;2022-12-20T00:11:41;101023.25;;;3.39;100.00
14612;BME280;7392;52.078;11.650;2022-12-20T00:14:09;101034.84;;;3.45;100.00
14612;BME280;7392;52.078;11.650;2022-12-20T00:16:38;101038.34;;;3.46;100.00
14612;BME280;7392;52.078;11.650;2022-12-20T00:19:08;101041.09;;;3.49;100.00
14612;BME280;7392;52.078;11.650;2022-12-20T00:21:36;101041.13;;;3.50;100.00
14612;BME280;7392;52.078;11.650;2022-12-20T00:24:05;101031.47;;;3.49;100.00
14612;BME280;7392;52.078;11.650;2022-12-20T00:26:34;101018.28;;;3.48;100.00
14612;BME280;7392;52.078;11.650;2022-12-20T00:29:04;101017.44;;;3.49;100.00
14612;BME280;7392;52.078;11.650;2022-12-20T00:31:33;101014.88;;;3.50;100.00
14612;BME280;7392;52.078;11.650;2022-12-20T00:34:02;101014.88;;;3.50;100.00
14612;BME280;7392;52.078;11.650;2022-12-20T00:36:31;101026.22;;;3.49;100.00
14612;BME280;7392;52.078;11.650;2022-12-20T00:39:00;101022.69;;;3.49;100.00
14612;BME280;7392;52.078;11.650;2022-12-20T00:41:29;101021.06;;;3.52;100.00
14612;BME280;7392;52.078;11.650;2022-12-20T00:43:57;101021.31;;;3.62;100.00
14612;BME280;7392;52.078;11.650;2022-12-20T00:46:26;101010.91;;;3.65;100.00
14612;BME280;7392;52.078;11.650;2022-12-20T00:48:54;101021.53;;;3.68;100.00
14612;BME280;7392;52.078;11.650;2022-12-20T00:51:26;101019.72;;;3.67;100.00
14612;BME280;7392;52.078;11.650;2022-12-20T00:53:54;101020.66;;;3.69;100.00
14612;BME280;7392;52.078;11.650;2022-12-20T00:56:21;101014.53;;;3.68;100.00
14612;BME280;7392;52.078;11.650;2022-12-20T00:58:54;101021.63;;;3.71;100.00
14612;BME280;7392;52.078;11.650;2022-12-20T01:01:24;101024.31;;;3.74;100.00
14612;BME280;7392;52.078;11.650;2022-12-20T01:03:53;101026.16;;;3.77;100.00
14612;BME280;7392;52.078;11.650;2022-12-20T01:06:22;101014.09;;;3.83;100.00
14612;BME280;7392;52.078;11.650;2022-12-20T01:08:52;101009.81;;;3.87;100.00
14612;BME280;7392;52.078;11.650;2022-12-20T01:11:22;101002.03;;;3.90;100.00
14612;BME280;7392;52.078;11.650;2022-12-20T01:13:53;101009.88;;;3.88;100.00
14612;BME280;7392;52.078;11.650;2022-12-20T01:16:23;101004.56;;;3.87;100.00
14612;BME280;7392;52.078;11.650;2022-12-20T01:18:51;101007.16;;;3.85;100.00
14612;BME280;7392;52.078;11.650;2022-12-20T01:21:21;101004.47;;;3.84;100.00
14612;BME280;7392;52.078;11.650;2022-12-20T01:23:49;100992.06;;;3.78;100.00
14612;BME280;7392;52.078;11.650;2022-12-20T01:26:21;101000.81;;;3.79;100.00
14612;BME280;7392;52.078;11.650;2022-12-20T01:28:52;100996.53;;;3.82;100.00
14612;BME280;7392;52.078;11.650;2022-12-20T01:31:20;101009.09;;;3.92;100.00
14612;BME280;7392;52.078;11.650;2022-12-20T01:33:50;101014.50;;;3.97;100.00
14612;BME280;7392;52.078;11.650;2022-12-20T01:36:20;101008.47;;;4.01;100.00
14612;BME280;7392;52.078;11.650;2022-12-20T01:38:55;101006.97;;;4.09;100.00
14612;BME280;7392;52.078;11.650;2022-12-20T01:41:24;100987.81;;;4.14;100.00
14612;BME280;7392;52.078;11.650;2022-12-20T01:43:55;100994.91;;;4.18;100.00
14612;BME280;7392;52.078;11.650;2022-12-20T01:46:25;100992.28;;;4.18;100.00
14612;BME280;7392;52.078;11.650;2022-12-20T01:48:57;100987.03;;;4.18;100.00
14612;BME280;7392;52.078;11.650;2022-12-20T01:51:26;100983.53;;;4.17;100.00
14612;BME280;7392;52.078;11.650;2022-12-20T01:54:02;100985.19;;;4.14;100.00
14612;BME280;7392;52.078;11.650;2022-12-20T01:56:32;100992.09;;;4.11;100.00
14612;BME280;7392;52.078;11.650;2022-12-20T01:59:01;100992.84;;;4.06;100.00
14612;BME280;7392;52.078;11.650;2022-12-20T02:01:29;100990.06;;;4.01;100.00
14612;BME280;7392;52.078;11.650;2022-12-20T02:03:57;100990.00;;;3.98;100.00
14612;BME280;7392;52.078;11.650;2022-12-20T02:06:25;100985.44;;;3.92;100.00
14612;BME280;7392;52.078;11.650;2022-12-20T02:08:56;100987.00;;;3.86;100.00
14612;BME280;7392;52.078;11.650;2022-12-20T02:11:48;100974.59;;;3.80;100.00
14612;BME280;7392;52.078;11.650;2022-12-20T02:14:29;100976.19;;;3.75;100.00
14612;BME280;7392;52.078;11.650;2022-12-20T02:17:02;100981.28;;;3.70;100.00
14612;BME280;7392;52.078;11.650;2022-12-20T02:19:59;100983.81;;;3.66;100.00
14612;BME280;7392;52.078;11.650;2022-12-20T02:22:45;100977.59;;;3.64;100.00
14612;BME280;7392;52.078;11.650;2022-12-20T02:25:36;100983.72;;;3.63;100.00
14612;BME280;7392;52.078;11.650;2022-12-20T02:28:22;100995.97;;;3.64;100.00
14612;BME280;7392;52.078;11.650;2022-12-20T02:31:03;101003.88;;;3.64;100.00
14612;BME280;7392;52.078;11.650;2022-12-20T02:33:31;100997.69;;;3.62;100.00
14612;BME280;7392;52.078;11.650;2022-12-20T02:35:59;100986.28;;;3.61;100.00
14612;BME280;7392;52.078;11.650;2022-12-20T02:38:30;100975.78;;;3.61;100.00
14612;BME280;7392;52.078;11.650;2022-12-20T02:41:02;100976.63;;;3.60;100.00
14612;BME280;7392;52.078;11.650;2022-12-20T02:43:33;100965.28;;;3.61;100.00
14612;BME280;7392;52.078;11.650;2022-12-20T02:46:23;100976.75;;;3.65;100.00
14612;BME280;7392;52.078;11.650;2022-12-20T02:48:55;100977.78;;;3.70;100.00
14612;BME280;7392;52.078;11.650;2022-12-20T02:51:26;100967.28;;;3.70;100.00
14612;BME280;7392;52.078;11.650;2022-12-20T02:53:55;100968.22;;;3.72;100.00
14612;BME280;7392;52.078;11.650;2022-12-20T02:56:29;100964.84;;;3.76;100.00
14612;BME280;7392;52.078;11.650;2022-12-20T02:59:03;100961.34;;;3.77;100.00
14612;BME280;7392;52.078;11.650;2022-12-20T03:01:37;100950.06;;;3.80;100.00
14612;BME280;7392;52.078;11.650;2022-12-20T03:04:07;100948.25;;;3.79;100.00
14612;BME280;7392;52.078;11.650;2022-12-20T03:06:38;100945.63;;;3.79;100.00
14612;BME280;7392;52.078;11.650;2022-12-20T03:09:06;100950.84;;;3.77;100.00
14612;BME280;7392;52.078;11.650;2022-12-20T03:11:35;100948.13;;;3.74;100.00
14612;BME280;7392;52.078;11.650;2022-12-20T03:14:03;100946.34;;;3.73;100.00
14612;BME280;7392;52.078;11.650;2022-12-20T03:16:31;100946.34;;;3.73;100.00
14612;BME280;7392;52.078;11.650;2022-12-20T03:19:01;100946.25;;;3.70;100.00
14612;BME280;7392;52.078;11.650;2022-12-20T03:21:28;100933.94;;;3.67;100.00
14612;BME280;7392;52.078;11.650;2022-12-20T03:23:56;100941.81;;;3.67;100.00
14612;BME280;7392;52.078;11.650;2022-12-20T03:26:24;100947.91;;;3.66;100.00
14612;BME280;7392;52.078;11.650;2022-12-20T03:28:57;100944.41;;;3.66;100.00
14612;BME280;7392;52.078;11.650;2022-12-20T03:31:26;100938.28;;;3.67;100.00
14612;BME280;7392;52.078;11.650;2022-12-20T03:33:54;100943.59;;;3.68;100.00
14612;BME280;7392;52.078;11.650;2022-12-20T03:36:24;100943.69;;;3.71;100.00
14612;BME280;7392;52.078;11.650;2022-12-20T03:38:56;100952.53;;;3.75;100.00
14612;BME280;7392;52.078;11.650;2022-12-20T03:41:26;100939.66;;;3.84;100.00
14612;BME280;7392;52.078;11.650;2022-12-20T03:43:54;100932.09;;;3.95;100.00
14612;BME280;7392;52.078;11.650;2022-12-20T03:46:23;100935.00;;;4.06;100.00
14612;BME280;7392;52.078;11.650;2022-12-20T03:48:52;100935.38;;;4.20;100.00
14612;BME280;7392;52.078;11.650;2022-12-20T03:51:20;100936.44;;;4.26;100.00
14612;BME280;7392;52.078;11.650;2022-12-20T03:53:50;100928.66;;;4.31;100.00
14612;BME280;7392;52.078;11.650;2022-12-20T03:56:20;100934.91;;;4.35;100.00
14612;BME280;7392;52.078;11.650;2022-12-20T03:58:47;100923.44;;;4.33;100.00
14612;BME280;7392;52.078;11.650;2022-12-20T04:01:18;100924.41;;;4.36;100.00
14612;BME280;7392;52.078;11.650;2022-12-20T04:03:46;100923.59;;;4.39;100.00
14612;BME280;7392;52.078;11.650;2022-12-20T04:06:14;100926.31;;;4.42;100.00
14612;BME280;7392;52.078;11.650;2022-12-20T04:08:43;100924.59;;;4.44;100.00
14612;BME280;7392;52.078;11.650;2022-12-20T04:11:18;100931.56;;;4.42;100.00
14612;BME280;7392;52.078;11.650;2022-12-20T04:13:52;100937.63;;;4.38;100.00
14612;BME280;7392;52.078;11.650;2022-12-20T04:16:23;100936.59;;;4.33;100.00
14612;BME280;7392;52.078;11.650;2022-12-20T04:18:52;100931.16;;;4.26;100.00
14612;BME280;7392;52.078;11.650;2022-12-20T04:21:22;100939.78;;;4.21;100.00
14612;BME280;7392;52.078;11.650;2022-12-20T04:23:52;100942.28;;;4.16;100.00
14612;BME280;7392;52.078;11.650;2022-12-20T04:26:23;100931.69;;;4.13;100.00
14612;BME280;7392;52.078;11.650;2022-12-20T04:28:52;100923.75;;;4.10;100.00
14612;BME280;7392;52.078;11.650;2022-12-20T04:31:20;100922.81;;;4.09;100.00
14612;BME280;7392;52.078;11.650;2022-12-20T04:33:51;100920.16;;;4.08;100.00
14612;BME280;7392;52.078;11.650;2022-12-20T04:36:20;100921.91;;;4.07;100.00
14612;BME280;7392;52.078;11.650;2022-12-20T04:38:50;100907.00;;;4.08;100.00
14612;BME280;7392;52.078;11.650;2022-12-20T04:41:18;100894.78;;;4.08;100.00
14612;BME280;7392;52.078;11.650;2022-12-20T04:43:57;100898.28;;;4.09;100.00
14612;BME280;7392;52.078;11.650;2022-12-20T04:46:33;100893.03;;;4.09;100.00
14612;BME280;7392;52.078;11.650;2022-12-20T04:49:01;100894.78;;;4.08;100.00
14612;BME280;7392;52.078;11.650;2022-12-20T04:51:32;100897.41;;;4.08;100.00
14612;BME280;7392;52.078;11.650;2022-12-20T04:54:01;100909.78;;;4.12;100.00
14612;BME280;7392;52.078;11.650;2022-12-20T04:56:39;100917.72;;;4.14;100.00
14612;BME280;7392;52.078;11.650;2022-12-20T04:59:10;100915.13;;;4.16;100.00
14612;BME280;7392;52.078;11.650;2022-12-20T05:01:41;100914.19;;;4.14;100.00
14612;BME280;7392;52.078;11.650;2022-12-20T05:04:13;100914.16;;;4.12;100.00
14612;BME280;7392;52.078;11.650;2022-12-20T05:06:41;100911.44;;;4.09;100.00
14612;BME280;7392;52.078;11.650;2022-12-20T05:09:09;100904.44;;;4.09;100.00
14612;BME280;7392;52.078;11.650;2022-12-20T05:11:38;100901.75;;;4.08;100.00
14612;BME280;7392;52.078;11.650;2022-12-20T05:14:07;100887.69;;;4.06;100.00
14612;BME280;7392;52.078;11.650;2022-12-20T05:16:36;100885.22;;;4.12;100.00
14612;BME280;7392;52.078;11.650;2022-12-20T05:19:05;100884.41;;;4.15;100.00
14612;BME280;7392;52.078;11.650;2022-12-20T05:21:37;100889.75;;;4.18;100.00
14612;BME280;7392;52.078;11.650;2022-12-20T05:24:25;100883.75;;;4.23;100.00
14612;BME280;7392;52.078;11.650;2022-12-20T05:27:22;100890.06;;;4.30;100.00
14612;BME280;7392;52.078;11.650;2022-12-20T05:29:50;100896.31;;;4.35;100.00
14612;BME280;7392;52.078;11.650;2022-12-20T05:32:20;100899.03;;;4.38;100.00
14612;BME280;7392;52.078;11.650;2022-12-20T05:34:50;100892.16;;;4.43;100.00
14612;BME280;7392;52.078;11.650;2022-12-20T05:37:19;100880.94;;;4.50;100.00
14612;BME280;7392;52.078;11.650;2022-12-20T05:39:47;100879.31;;;4.56;100.00
14612;BME280;7392;52.078;11.650;2022-12-20T05:42:19;100875.97;;;4.61;100.00
14612;BME280;7392;52.078;11.650;2022-12-20T05:44:50;100891.00;;;4.67;100.00
14612;BME280;7392;52.078;11.650;2022-12-20T05:47:21;100889.44;;;4.75;100.00
14612;BME280;7392;52.078;11.650;2022-12-20T05:49:58;100892.19;;;4.81;100.00
14612;BME280;7392;52.078;11.650;2022-12-20T05:52:30;100895.81;;;4.86;100.00
14612;BME280;7392;52.078;11.650;2022-12-20T05:54:57;100900.38;;;4.92;100.00
14612;BME280;7392;52.078;11.650;2022-12-20T05:57:26;100900.41;;;4.94;100.00
14612;BME280;7392;52.078;11.650;2022-12-20T05:59:54;100903.13;;;4.98;100.00
14612;BME280;7392;52.078;11.650;2022-12-20T06:02:25;100887.38;;;5.00;100.00
14612;BME280;7392;52.078;11.650;2022-12-20T06:05:00;100882.91;;;4.96;100.00
14612;BME280;7392;52.078;11.650;2022-12-20T06:07:29;100890.75;;;4.94;100.00
14612;BME280;7392;52.078;11.650;2022-12-20T06:09:58;100888.13;;;4.94;100.00
14612;BME280;7392;52.078;11.650;2022-12-20T06:12:51;100888.13;;;4.94;100.00
14612;BME280;7392;52.078;11.650;2022-12-20T06:15:20;100903.94;;;4.96;100.00
14612;BME280;7392;52.078;11.650;2022-12-20T06:17:49;100896.03;;;4.94;100.00
14612;BME280;7392;52.078;11.650;2022-12-20T06:20:17;100909.22;;;4.96;100.00
14612;BME280;7392;52.078;11.650;2022-12-20T06:22:47;100904.84;;;4.96;100.00
14612;BME280;7392;52.078;11.650;2022-12-20T06:25:15;100905.75;;;4.98;100.00
14612;BME280;7392;52.078;11.650;2022-12-20T06:27:43;100911.94;;;5.00;100.00
14612;BME280;7392;52.078;11.650;2022-12-20T06:30:14;100916.41;;;5.03;100.00
14612;BME280;7392;52.078;11.650;2022-12-20T06:32:56;100912.06;;;5.05;100.00
14612;BME280;7392;52.078;11.650;2022-12-20T06:35:24;100915.63;;;5.09;100.00
14612;BME280;7392;52.078;11.650;2022-12-20T06:37:54;100915.84;;;5.16;100.00
14612;BME280;7392;52.078;11.650;2022-12-20T06:40:22;100907.13;;;5.20;100.00
14612;BME280;7392;52.078;11.650;2022-12-20T06:42:50;100912.44;;;5.22;100.00
14612;BME280;7392;52.078;11.650;2022-12-20T06:45:21;100915.06;;;5.22;100.00
14612;BME280;7392;52.078;11.650;2022-12-20T06:47:51;100911.53;;;5.20;100.00
14612;BME280;7392;52.078;11.650;2022-12-20T06:50:21;100912.31;;;5.17;100.00
14612;BME280;7392;52.078;11.650;2022-12-20T06:52:49;100913.97;;;5.12;100.00
14612;BME280;7392;52.078;11.650;2022-12-20T06:55:16;100916.56;;;5.11;100.00
14612;BME280;7392;52.078;11.650;2022-12-20T06:57:45;100916.50;;;5.08;100.00
14612;BME280;7392;52.078;11.650;2022-12-20T07:00:21;100914.69;;;5.05;100.00
14612;BME280;7392;52.078;11.650;2022-12-20T07:02:49;100900.53;;;5.00;100.00
14612;BME280;7392;52.078;11.650;2022-12-20T07:05:18;100898.66;;;4.94;100.00
14612;BME280;7392;52.078;11.650;2022-12-20T07:07:47;100898.53;;;4.90;100.00
14612;BME280;7392;52.078;11.650;2022-12-20T07:10:15;100907.22;;;4.85;100.00
14612;BME280;7392;52.078;11.650;2022-12-20T07:12:42;100907.94;;;4.80;100.00
14612;BME280;7392;52.078;11.650;2022-12-20T07:15:14;100913.22;;;4.80;100.00
14612;BME280;7392;52.078;11.650;2022-12-20T07:17:42;100916.72;;;4.79;100.00
14612;BME280;7392;52.078;11.650;2022-12-20T07:20:10;100907.03;;;4.78;100.00
14612;BME280;7392;52.078;11.650;2022-12-20T07:22:40;100901.72;;;4.76;100.00
14612;BME280;7392;52.078;11.650;2022-12-20T07:25:10;100907.81;;;4.74;100.00
14612;BME280;7392;52.078;11.650;2022-12-20T07:27:38;100917.47;;;4.73;100.00
14612;BME280;7392;52.078;11.650;2022-12-20T07:30:07;100923.59;;;4.74;100.00
14612;BME280;7392;52.078;11.650;2022-12-20T07:32:35;100911.34;;;4.74;100.00
14612;BME280;7392;52.078;11.650;2022-12-20T07:35:03;100916.63;;;4.76;100.00
14612;BME280;7392;52.078;11.650;2022-12-20T07:37:30;100919.25;;;4.76;100.00
14612;BME280;7392;52.078;11.650;2022-12-20T07:39:58;100913.19;;;4.78;100.00
14612;BME280;7392;52.078;11.650;2022-12-20T07:42:27;100921.09;;;4.78;100.00
14612;BME280;7392;52.078;11.650;2022-12-20T07:45:05;100926.38;;;4.80;100.00
14612;BME280;7392;52.078;11.650;2022-12-20T07:47:32;100937.78;;;4.79;100.00
14612;BME280;7392;52.078;11.650;2022-12-20T07:50:01;100917.63;;;4.81;100.00
14612;BME280;7392;52.078;11.650;2022-12-20T07:52:31;100910.63;;;4.81;100.00
14612;BME280;7392;52.078;11.650;2022-12-20T07:55:03;100909.81;;;4.84;100.00
14612;BME280;7392;52.078;11.650;2022-12-20T07:57:36;100913.34;;;4.84;100.00
14612;BME280;7392;52.078;11.650;2022-12-20T08:00:08;100915.91;;;4.83;100.00
14612;BME280;7392;52.078;11.650;2022-12-20T08:02:41;100910.75;;;4.86;100.00
14612;BME280;7392;52.078;11.650;2022-12-20T08:05:11;100911.63;;;4.86;100.00
14612;BME280;7392;52.078;11.650;2022-12-20T08:07:40;100908.19;;;4.89;100.00
14612;BME280;7392;52.078;11.650;2022-12-20T08:10:11;100902.97;;;4.91;100.00
14612;BME280;7392;52.078;11.650;2022-12-20T08:12:42;100901.13;;;4.88;100.00
14612;BME280;7392;52.078;11.650;2022-12-20T08:15:11;100896.69;;;4.85;100.00
14612;BME280;7392;52.078;11.650;2022-12-20T08:17:39;100899.22;;;4.81;100.00
14612;BME280;7392;52.078;11.650;2022-12-20T08:20:07;100893.00;;;4.77;100.00
14612;BME280;7392;52.078;11.650;2022-12-20T08:22:35;100887.75;;;4.79;100.00
14612;BME280;7392;52.078;11.650;2022-12-20T08:25:04;100893.88;;;4.78;100.00
14612;BME280;7392;52.078;11.650;2022-12-20T08:27:32;100904.44;;;4.79;100.00
14612;BME280;7392;52.078;11.650;2022-12-20T08:30:01;100905.31;;;4.80;100.00
14612;BME280;7392;52.078;11.650;2022-12-20T08:32:30;100904.47;;;4.81;100.00
14612;BME280;7392;52.078;11.650;2022-12-20T08:34:57;100905.44;;;4.84;100.00
14612;BME280;7392;52.078;11.650;2022-12-20T08:37:25;100904.63;;;4.87;100.00
14612;BME280;7392;52.078;11.650;2022-12-20T08:39:53;100899.41;;;4.89;100.00
14612;BME280;7392;52.078;11.650;2022-12-20T08:42:21;100900.31;;;4.91;100.00
14612;BME280;7392;52.078;11.650;2022-12-20T08:44:50;100900.31;;;4.91;100.00
14612;BME280;7392;52.078;11.650;2022-12-20T08:47:19;100899.41;;;4.90;100.00
14612;BME280;7392;52.078;11.650;2022-12-20T08:49:47;100905.59;;;4.91;100.00
14612;BME280;7392;52.078;11.650;2022-12-20T08:52:15;100899.41;;;4.90;100.00
14612;BME280;7392;52.078;11.650;2022-12-20T08:54:43;100900.28;;;4.89;100.00
14612;BME280;7392;52.078;11.650;2022-12-20T08:57:10;100910.84;;;4.91;100.00
14612;BME280;7392;52.078;11.650;2022-12-20T08:59:39;100912.56;;;4.89;100.00
14612;BME280;7392;52.078;11.650;2022-12-20T09:02:06;100909.09;;;4.91;100.00
14612;BME280;7392;52.078;11.650;2022-12-20T09:04:36;100897.69;;;4.91;100.00
14612;BME280;7392;52.078;11.650;2022-12-20T09:07:04;100894.16;;;4.89;100.00
14612;BME280;7392;52.078;11.650;2022-12-20T09:09:31;100889.75;;;4.89;100.00
14612;BME280;7392;52.078;11.650;2022-12-20T09:11:59;100887.13;;;4.89;100.00
14612;BME280;7392;52.078;11.650;2022-12-20T09:14:27;100891.50;;;4.89;100.00
14612;BME280;7392;52.078;11.650;2022-12-20T09:16:55;100894.97;;;4.87;100.00
14612;BME280;7392;52.078;11.650;2022-12-20T09:19:23;100900.28;;;4.89;100.00
14612;BME280;7392;52.078;11.650;2022-12-20T09:21:52;100895.91;;;4.90;100.00
14612;BME280;7392;52.078;11.650;2022-12-20T09:24:20;100899.47;;;4.92;100.00
14612;BME280;7392;52.078;11.650;2022-12-20T09:26:48;100893.34;;;4.93;100.00
14612;BME280;7392;52.078;11.650;2022-12-20T09:29:17;100883.66;;;4.92;100.00
14612;BME280;7392;52.078;11.650;2022-12-20T09:31:55;100883.69;;;4.93;100.00
14612;BME280;7392;52.078;11.650;2022-12-20T09:34:22;100875.81;;;4.93;100.00
14612;BME280;7392;52.078;11.650;2022-12-20T09:36:52;100877.56;;;4.93;100.00
14612;BME280;7392;52.078;11.650;2022-12-20T09:39:20;100878.44;;;4.93;100.00
14612;BME280;7392;52.078;11.650;2022-12-20T09:41:48;100880.25;;;4.96;100.00
14612;BME280;7392;52.078;11.650;2022-12-20T09:44:18;100880.34;;;4.99;100.00
14612;BME280;7392;52.078;11.650;2022-12-20T09:46:53;100885.66;;;5.02;100.00
14612;BME280;7392;52.078;11.650;2022-12-20T09:49:24;100889.28;;;5.07;100.00
14612;BME280;7392;52.078;11.650;2022-12-20T09:52:14;100890.22;;;5.11;100.00
14612;BME280;7392;52.078;11.650;2022-12-20T09:54:51;100884.16;;;5.13;100.00
14612;BME280;7392;52.078;11.650;2022-12-20T09:57:26;100881.59;;;5.16;100.00
14612;BME280;7392;52.078;11.650;2022-12-20T09:59:57;100887.75;;;5.17;100.00
14612;BME280;7392;52.078;11.650;2022-12-20T10:02:25;100893.84;;;5.16;100.00
14612;BME280;7392;52.078;11.650;2022-12-20T10:05:20;100874.47;;;5.12;100.00
14612;BME280;7392;52.078;11.650;2022-12-20T10:07:53;100876.22;;;5.12;100.00
14612;BME280;7392;52.078;11.650;2022-12-20T10:10:50;100865.66;;;5.10;100.00
14612;BME280;7392;52.078;11.650;2022-12-20T10:13:28;100870.88;;;5.09;100.00
14612;BME280;7392;52.078;11.650;2022-12-20T10:16:11;100857.69;;;5.07;100.00
14612;BME280;7392;52.078;11.650;2022-12-20T10:18:52;100853.34;;;5.09;100.00
14612;BME280;7392;52.078;11.650;2022-12-20T10:21:31;100843.78;;;5.13;100.00
14612;BME280;7392;52.078;11.650;2022-12-20T10:24:06;100835.00;;;5.14;100.00
14612;BME280;7392;52.078;11.650;2022-12-20T10:26:36;100839.47;;;5.16;100.00
14612;BME280;7392;52.078;11.650;2022-12-20T10:29:04;100830.69;;;5.17;100.00
14612;BME280;7392;52.078;11.650;2022-12-20T10:31:33;100826.34;;;5.18;100.00
14612;BME280;7392;52.078;11.650;2022-12-20T10:34:01;100841.25;;;5.19;100.00
14612;BME280;7392;52.078;11.650;2022-12-20T10:36:30;100841.25;;;5.19;100.00
14612;BME280;7392;52.078;11.650;2022-12-20T10:39:00;100843.97;;;5.22;100.00
14612;BME280;7392;52.078;11.650;2022-12-20T10:41:32;100830.78;;;5.22;100.00
14612;BME280;7392;52.078;11.650;2022-12-20T10:44:02;100841.38;;;5.23;100.00
14612;BME280;7392;52.078;11.650;2022-12-20T10:46:35;100832.59;;;5.23;100.00
14612;BME280;7392;52.078;11.650;2022-12-20T10:49:24;100832.59;;;5.23;100.00
14612;BME280;7392;52.078;11.650;2022-12-20T10:51:55;100827.31;;;5.23;100.00
14612;BME280;7392;52.078;11.650;2022-12-20T10:54:28;100820.25;;;5.22;100.00
14612;BME280;7392;52.078;11.650;2022-12-20T10:57:00;100813.22;;;5.21;100.00
14612;BME280;7392;52.078;11.650;2022-12-20T10:59:32;100816.72;;;5.20;100.00
14612;BME280;7392;52.078;11.650;2022-12-20T11:02:02;100811.44;;;5.20;100.00
14612;BME280;7392;52.078;11.650;2022-12-20T11:04:32;100820.22;;;5.20;100.00
14612;BME280;7392;52.078;11.650;2022-12-20T11:07:03;100823.78;;;5.22;100.00
14612;BME280;7392;52.078;11.650;2022-12-20T11:09:54;100808.88;;;5.23;100.00
14612;BME280;7392;52.078;11.650;2022-12-20T11:12:23;100795.69;;;5.21;100.00
14612;BME280;7392;52.078;11.650;2022-12-20T11:15:08;100786.88;;;5.21;100.00
14612;BME280;7392;52.078;11.650;2022-12-20T11:17:39;100797.41;;;5.21;100.00
14612;BME280;7392;52.078;11.650;2022-12-20T11:20:20;100801.81;;;5.22;100.00
14612;BME280;7392;52.078;11.650;2022-12-20T11:22:55;100793.88;;;5.20;100.00
14612;BME280;7392;52.078;11.650;2022-12-20T11:25:38;100788.59;;;5.19;100.00
14612;BME280;7392;52.078;11.650;2022-12-20T11:28:26;100775.34;;;5.16;100.00
14612;BME280;7392;52.078;11.650;2022-12-20T11:31:07;100763.91;;;5.14;100.00
14612;BME280;7392;52.078;11.650;2022-12-20T11:33:50;100762.09;;;5.10;100.00
14612;BME280;7392;52.078;11.650;2022-12-20T11:36:30;100771.66;;;5.06;100.00
14612;BME280;7392;52.078;11.650;2022-12-20T11:39:12;100761.06;;;5.03;100.00
14612;BME280;7392;52.078;11.650;2022-12-20T11:41:45;100752.25;;;5.01;100.00
14612;BME280;7392;52.078;11.650;2022-12-20T11:44:24;100758.28;;;4.97;100.00
14612;BME280;7392;52.078;11.650;2022-12-20T11:47:19;100758.25;;;4.94;100.00
14612;BME280;7392;52.078;11.650;2022-12-20T11:50:08;100769.59;;;4.91;100.00
14612;BME280;7392;52.078;11.650;2022-12-20T11:52:44;100767.84;;;4.92;100.00
14612;BME280;7392;52.078;11.650;2022-12-20T11:55:16;100767.84;;;4.92;100.00
14612;BME280;7392;52.078;11.650;2022-12-20T11:57:53;100755.63;;;4.94;100.00
14612;BME280;7392;52.078;11.650;2022-12-20T12:00:49;100753.00;;;4.94;100.00
14612;BME280;7392;52.078;11.650;2022-12-20T12:03:22;100745.09;;;4.95;100.00
14612;BME280;7392;52.078;11.650;2022-12-20T12:05:55;100730.19;;;4.94;100.00
14612;BME280;7392;52.078;11.650;2022-12-20T12:08:30;100735.41;;;4.93;100.00
14612;BME280;7392;52.078;11.650;2022-12-20T12:11:04;100722.28;;;4.94;100.00
14612;BME280;7392;52.078;11.650;2022-12-20T12:13:56;100719.66;;;4.94;100.00
14612;BME280;7392;52.078;11.650;2022-12-20T12:16:27;100717.03;;;4.94;100.00
14612;BME280;7392;52.078;11.650;2022-12-20T12:18:59;100707.41;;;4.96;100.00
14612;BME280;7392;52.078;11.650;2022-12-20T12:21:31;100719.72;;;4.97;100.00
14612;BME280;7392;52.078;11.650;2022-12-20T12:24:05;100708.31;;;4.98;100.00
14612;BME280;7392;52.078;11.650;2022-12-20T12:26:37;100706.59;;;5.00;100.00
14612;BME280;7392;52.078;11.650;2022-12-20T12:29:10;100713.69;;;5.03;100.00
14612;BME280;7392;52.078;11.650;2022-12-20T12:31:44;100718.09;;;5.04;100.00
14612;BME280;7392;52.078;11.650;2022-12-20T12:34:28;100713.72;;;5.04;100.00
14612;BME280;7392;52.078;11.650;2022-12-20T12:40:09;100706.72;;;5.06;100.00
14612;BME280;7392;52.078;11.650;2022-12-20T12:43:04;100704.09;;;5.06;100.00
14612;BME280;7392;52.078;11.650;2022-12-20T12:45:37;100702.34;;;5.07;100.00
14612;BME280;7392;52.078;11.650;2022-12-20T12:48:17;100702.34;;;5.07;100.00
14612;BME280;7392;52.078;11.650;2022-12-20T12:50:48;100690.94;;;5.06;100.00
14612;BME280;7392;52.078;11.650;2022-12-20T12:53:19;100688.28;;;5.06;100.00
14612;BME280;7392;52.078;11.650;2022-12-20T12:55:50;100678.66;;;5.07;100.00
14612;BME280;7392;52.078;11.650;2022-12-20T12:58:38;100684.81;;;5.08;100.00
14612;BME280;7392;52.078;11.650;2022-12-20T13:01:45;100686.56;;;5.09;100.00
14612;BME280;7392;52.078;11.650;2022-12-20T13:04:26;100690.97;;;5.08;100.00
14612;BME280;7392;52.078;11.650;2022-12-20T13:06:58;100688.38;;;5.10;100.00
14612;BME280;7392;52.078;11.650;2022-12-20T13:09:40;100675.22;;;5.11;100.00
14612;BME280;7392;52.078;11.650;2022-12-20T13:15:48;100674.38;;;5.14;100.00
14612;BME280;7392;52.078;11.650;2022-12-20T13:18:24;100692.84;;;5.15;100.00
14612;BME280;7392;52.078;11.650;2022-12-20T13:27:16;100650.75;;;5.17;100.00
14612;BME280;7392;52.078;11.650;2022-12-20T13:33:16;100660.47;;;5.19;100.00